sensor_id;sensor_type;location;lat;lon;timestamp;temperature;humidity
39345;DHT22;25061;51.954;6.996;2023-05-24T04:32:21;6.60;99.90
39345;DHT22;25061;51.954;6.996;2023-05-24T04:34:48;6.80;99.90
39345;DHT22;25061;51.954;6.996;2023-05-24T04:37:14;6.70;99.90
39345;DHT22;25061;51.954;6.996;2023-05-24T04:39:44;6.80;99.90
39345;DHT22;25061;51.954;6.996;2023-05-24T04:42:12;6.80;99.90
39345;DHT22;25061;51.954;6.996;2023-05-24T04:44:41;6.80;99.90
39345;DHT22;25061;51.954;6.996;2023-05-24T04:47:07;6.90;99.90
39345;DHT22;25061;51.954;6.996;2023-05-24T04:49:34;7.00;99.90
39345;DHT22;25061;51.954;6.996;2023-05-24T04:51:59;7.00;99.90
39345;DHT22;25061;51.954;6.996;2023-05-24T04:54:25;7.10;99.90
39345;DHT22;25061;51.954;6.996;2023-05-24T04:56:50;7.10;99.90
39345;DHT22;25061;51.954;6.996;2023-05-24T04:59:16;7.20;99.90
39345;DHT22;25061;51.954;6.996;2023-05-24T05:01:42;7.30;99.90
39345;DHT22;25061;51.954;6.996;2023-05-24T05:04:08;7.40;99.90
39345;DHT22;25061;51.954;6.996;2023-05-24T05:06:33;7.50;99.90
39345;DHT22;25061;51.954;6.996;2023-05-24T05:09:06;7.60;99.90
39345;DHT22;25061;51.954;6.996;2023-05-24T05:11:34;7.70;99.90
39345;DHT22;25061;51.954;6.996;2023-05-24T05:13:59;7.80;99.90
39345;DHT22;25061;51.954;6.996;2023-05-24T05:16:25;7.90;99.90
39345;DHT22;25061;51.954;6.996;2023-05-24T05:18:51;8.00;99.90
39345;DHT22;25061;51.954;6.996;2023-05-24T05:21:16;8.10;99.90
39345;DHT22;25061;51.954;6.996;2023-05-24T05:23:44;8.10;99.90
39345;DHT22;25061;51.954;6.996;2023-05-24T05:26:09;8.20;99.90
39345;DHT22;25061;51.954;6.996;2023-05-24T05:28:36;8.20;99.90
39345;DHT22;25061;51.954;6.996;2023-05-24T05:31:02;8.30;99.90
39345;DHT22;25061;51.954;6.996;2023-05-24T05:33:27;8.30;99.90
39345;DHT22;25061;51.954;6.996;2023-05-24T05:35:54;8.40;99.90
39345;DHT22;25061;51.954;6.996;2023-05-24T05:38:20;8.40;99.90
39345;DHT22;25061;51.954;6.996;2023-05-24T05:40:46;8.50;99.90
39345;DHT22;25061;51.954;6.996;2023-05-24T05:43:11;8.50;99.90
39345;DHT22;25061;51.954;6.996;2023-05-24T05:45:37;8.60;99.90
39345;DHT22;25061;51.954;6.996;2023-05-24T05:48:02;8.70;99.90
39345;DHT22;25061;51.954;6.996;2023-05-24T05:50:28;8.90;99.90
39345;DHT22;25061;51.954;6.996;2023-05-24T05:52:53;8.90;99.90
39345;DHT22;25061;51.954;6.996;2023-05-24T05:55:19;9.00;99.90
39345;DHT22;25061;51.954;6.996;2023-05-24T05:57:45;9.00;99.90
39345;DHT22;25061;51.954;6.996;2023-05-24T06:00:11;9.00;99.90
39345;DHT22;25061;51.954;6.996;2023-05-24T06:02:37;9.00;99.90
39345;DHT22;25061;51.954;6.996;2023-05-24T06:05:02;9.10;99.90
39345;DHT22;25061;51.954;6.996;2023-05-24T06:07:28;9.10;99.90
39345;DHT22;25061;51.954;6.996;2023-05-24T06:09:55;9.10;99.90
39345;DHT22;25061;51.954;6.996;2023-05-24T06:12:21;9.10;99.90
39345;DHT22;25061;51.954;6.996;2023-05-24T06:14:46;9.10;99.90
39345;DHT22;25061;51.954;6.996;2023-05-24T06:17:15;9.20;99.90
39345;DHT22;25061;51.954;6.996;2023-05-24T06:19:41;9.30;99.90
39345;DHT22;25061;51.954;6.996;2023-05-24T06:22:08;9.40;99.90
39345;DHT22;25061;51.954;6.996;2023-05-24T06:24:33;9.50;99.90
39345;DHT22;25061;51.954;6.996;2023-05-24T06:26:59;9.60;99.90
39345;DHT22;25061;51.954;6.996;2023-05-24T06:29:26;9.60;99.90
39345;DHT22;25061;51.954;6.996;2023-05-24T06:31:51;9.80;99.90
39345;DHT22;25061;51.954;6.996;2023-05-24T06:34:20;10.00;99.90
39345;DHT22;25061;51.954;6.996;2023-05-24T06:36:46;10.10;99.90
39345;DHT22;25061;51.954;6.996;2023-05-24T06:39:13;10.30;99.90
39345;DHT22;25061;51.954;6.996;2023-05-24T06:41:40;10.30;99.90
39345;DHT22;25061;51.954;6.996;2023-05-24T06:44:06;10.50;99.90
39345;DHT22;25061;51.954;6.996;2023-05-24T06:46:32;10.70;99.90
39345;DHT22;25061;51.954;6.996;2023-05-24T06:48:58;10.80;99.90
39345;DHT22;25061;51.954;6.996;2023-05-24T06:51:23;10.80;99.90
39345;DHT22;25061;51.954;6.996;2023-05-24T06:53:49;10.90;99.90
39345;DHT22;25061;51.954;6.996;2023-05-24T06:56:15;11.10;99.90
39345;DHT22;25061;51.954;6.996;2023-05-24T06:58:42;11.10;99.90
39345;DHT22;25061;51.954;6.996;2023-05-24T07:01:08;11.10;99.90
39345;DHT22;25061;51.954;6.996;2023-05-24T07:03:34;11.00;99.90
39345;DHT22;25061;51.954;6.996;2023-05-24T07:06:00;11.00;99.90
39345;DHT22;25061;51.954;6.996;2023-05-24T07:08:26;11.00;99.90
39345;DHT22;25061;51.954;6.996;2023-05-24T07:10:55;11.00;99.90
39345;DHT22;25061;51.954;6.996;2023-05-24T07:13:21;11.10;99.90
39345;DHT22;25061;51.954;6.996;2023-05-24T07:15:47;11.10;99.90
39345;DHT22;25061;51.954;6.996;2023-05-24T07:18:13;11.00;99.90
39345;DHT22;25061;51.954;6.996;2023-05-24T07:20:39;11.00;99.90
39345;DHT22;25061;51.954;6.996;2023-05-24T07:23:04;11.00;99.90
39345;DHT22;25061;51.954;6.996;2023-05-24T07:25:31;11.10;99.90
39345;DHT22;25061;51.954;6.996;2023-05-24T07:27:57;11.10;99.90
39345;DHT22;25061;51.954;6.996;2023-05-24T07:30:23;11.10;99.90
39345;DHT22;25061;51.954;6.996;2023-05-24T07:32:49;11.10;99.90
39345;DHT22;25061;51.954;6.996;2023-05-24T07:35:14;11.10;99.90
39345;DHT22;25061;51.954;6.996;2023-05-24T07:37:40;11.20;99.90
39345;DHT22;25061;51.954;6.996;2023-05-24T07:40:07;11.30;99.90
39345;DHT22;25061;51.954;6.996;2023-05-24T07:42:36;11.40;99.90
39345;DHT22;25061;51.954;6.996;2023-05-24T07:45:02;11.60;99.90
39345;DHT22;25061;51.954;6.996;2023-05-24T07:47:27;11.70;99.90
39345;DHT22;25061;51.954;6.996;2023-05-24T07:49:53;11.60;99.90
39345;DHT22;25061;51.954;6.996;2023-05-24T07:52:18;11.60;99.90
39345;DHT22;25061;51.954;6.996;2023-05-24T07:54:44;11.50;99.90
39345;DHT22;25061;51.954;6.996;2023-05-24T07:57:11;11.50;99.90
39345;DHT22;25061;51.954;6.996;2023-05-24T07:59:37;11.70;99.90
39345;DHT22;25061;51.954;6.996;2023-05-24T08:02:03;11.70;99.90
39345;DHT22;25061;51.954;6.996;2023-05-24T08:04:31;11.60;99.90
39345;DHT22;25061;51.954;6.996;2023-05-24T08:07:00;11.60;99.90
39345;DHT22;25061;51.954;6.996;2023-05-24T08:09:30;11.70;99.90
39345;DHT22;25061;51.954;6.996;2023-05-24T08:12:03;11.80;99.90
39345;DHT22;25061;51.954;6.996;2023-05-24T08:14:29;11.90;99.90
39345;DHT22;25061;51.954;6.996;2023-05-24T08:16:55;11.90;99.90
39345;DHT22;25061;51.954;6.996;2023-05-24T08:19:20;12.10;99.90
39345;DHT22;25061;51.954;6.996;2023-05-24T08:21:46;12.10;99.90
39345;DHT22;25061;51.954;6.996;2023-05-24T08:24:12;12.10;99.90
39345;DHT22;25061;51.954;6.996;2023-05-24T08:26:37;12.20;99.90
39345;DHT22;25061;51.954;6.996;2023-05-24T08:29:05;12.10;99.90
39345;DHT22;25061;51.954;6.996;2023-05-24T08:31:31;12.10;99.90
39345;DHT22;25061;51.954;6.996;2023-05-24T08:34:00;12.10;99.90
39345;DHT22;25061;51.954;6.996;2023-05-24T08:36:27;12.10;99.90
39345;DHT22;25061;51.954;6.996;2023-05-24T08:38:52;12.20;99.90
39345;DHT22;25061;51.954;6.996;2023-05-24T08:41:19;12.20;99.90
39345;DHT22;25061;51.954;6.996;2023-05-24T08:43:46;12.50;99.90
39345;DHT22;25061;51.954;6.996;2023-05-24T08:46:15;12.50;99.90
39345;DHT22;25061;51.954;6.996;2023-05-24T08:48:45;12.70;99.90
39345;DHT22;25061;51.954;6.996;2023-05-24T08:51:13;12.70;99.90
39345;DHT22;25061;51.954;6.996;2023-05-24T08:53:40;12.90;99.90
39345;DHT22;25061;51.954;6.996;2023-05-24T08:56:06;12.90;99.90
39345;DHT22;25061;51.954;6.996;2023-05-24T08:58:36;12.60;99.90
39345;DHT22;25061;51.954;6.996;2023-05-24T09:01:03;12.60;99.90
39345;DHT22;25061;51.954;6.996;2023-05-24T09:03:30;12.60;99.90
39345;DHT22;25061;51.954;6.996;2023-05-24T09:05:58;12.60;99.90
39345;DHT22;25061;51.954;6.996;2023-05-24T09:08:25;12.50;99.90
39345;DHT22;25061;51.954;6.996;2023-05-24T09:10:52;12.50;99.90
39345;DHT22;25061;51.954;6.996;2023-05-24T09:13:19;12.40;99.90
39345;DHT22;25061;51.954;6.996;2023-05-24T09:15:47;12.40;99.90
39345;DHT22;25061;51.954;6.996;2023-05-24T09:18:12;12.30;99.90
39345;DHT22;25061;51.954;6.996;2023-05-24T09:20:38;12.20;99.90
39345;DHT22;25061;51.954;6.996;2023-05-24T09:23:04;12.30;99.90
39345;DHT22;25061;51.954;6.996;2023-05-24T09:25:30;12.40;99.90
39345;DHT22;25061;51.954;6.996;2023-05-24T09:27:55;12.50;99.90
39345;DHT22;25061;51.954;6.996;2023-05-24T09:30:21;12.50;99.90
39345;DHT22;25061;51.954;6.996;2023-05-24T09:32:58;12.60;99.90
39345;DHT22;25061;51.954;6.996;2023-05-24T09:35:25;12.60;99.90
39345;DHT22;25061;51.954;6.996;2023-05-24T09:38:02;12.60;99.90
39345;DHT22;25061;51.954;6.996;2023-05-24T09:40:28;12.70;99.90
39345;DHT22;25061;51.954;6.996;2023-05-24T09:43:07;12.70;99.90
39345;DHT22;25061;51.954;6.996;2023-05-24T09:45:41;12.80;99.90
39345;DHT22;25061;51.954;6.996;2023-05-24T09:48:11;12.90;99.90
39345;DHT22;25061;51.954;6.996;2023-05-24T09:50:39;13.00;99.90
39345;DHT22;25061;51.954;6.996;2023-05-24T09:53:05;12.90;99.90
39345;DHT22;25061;51.954;6.996;2023-05-24T09:55:35;12.90;99.90
39345;DHT22;25061;51.954;6.996;2023-05-24T09:58:03;12.80;99.90
39345;DHT22;25061;51.954;6.996;2023-05-24T10:00:37;12.80;99.90
39345;DHT22;25061;51.954;6.996;2023-05-24T10:03:05;12.90;99.90
39345;DHT22;25061;51.954;6.996;2023-05-24T10:05:32;12.80;99.90
39345;DHT22;25061;51.954;6.996;2023-05-24T10:07:58;12.90;99.90
39345;DHT22;25061;51.954;6.996;2023-05-24T10:10:28;13.00;99.90
39345;DHT22;25061;51.954;6.996;2023-05-24T10:12:55;12.90;99.90
39345;DHT22;25061;51.954;6.996;2023-05-24T10:15:21;12.90;99.90
39345;DHT22;25061;51.954;6.996;2023-05-24T10:17:47;12.90;99.90
39345;DHT22;25061;51.954;6.996;2023-05-24T10:20:12;12.90;99.90
39345;DHT22;25061;51.954;6.996;2023-05-24T10:22:43;12.80;99.90
39345;DHT22;25061;51.954;6.996;2023-05-24T10:25:16;12.70;99.90
39345;DHT22;25061;51.954;6.996;2023-05-24T10:27:48;12.80;99.90
39345;DHT22;25061;51.954;6.996;2023-05-24T10:32:44;12.80;99.90
39345;DHT22;25061;51.954;6.996;2023-05-24T10:35:13;12.80;99.90
39345;DHT22;25061;51.954;6.996;2023-05-24T10:37:45;12.90;99.90
39345;DHT22;25061;51.954;6.996;2023-05-24T10:40:18;12.80;99.90
39345;DHT22;25061;51.954;6.996;2023-05-24T10:42:45;12.70;99.90
39345;DHT22;25061;51.954;6.996;2023-05-24T10:47:49;12.90;99.90
39345;DHT22;25061;51.954;6.996;2023-05-24T10:50:21;12.90;99.90
39345;DHT22;25061;51.954;6.996;2023-05-24T10:52:49;12.90;99.90
39345;DHT22;25061;51.954;6.996;2023-05-24T10:55:17;13.00;99.90
39345;DHT22;25061;51.954;6.996;2023-05-24T10:57:43;13.10;99.90
39345;DHT22;25061;51.954;6.996;2023-05-24T11:02:50;13.00;99.90
39345;DHT22;25061;51.954;6.996;2023-05-24T11:05:16;13.10;99.90
39345;DHT22;25061;51.954;6.996;2023-05-24T11:07:43;13.10;99.90
39345;DHT22;25061;51.954;6.996;2023-05-24T11:10:13;13.00;99.90
39345;DHT22;25061;51.954;6.996;2023-05-24T11:12:39;12.90;99.90
39345;DHT22;25061;51.954;6.996;2023-05-24T11:15:08;13.00;99.90
39345;DHT22;25061;51.954;6.996;2023-05-24T11:20:40;13.10;99.90
39345;DHT22;25061;51.954;6.996;2023-05-24T11:23:07;13.20;99.90
39345;DHT22;25061;51.954;6.996;2023-05-24T11:25:34;13.20;99.90
39345;DHT22;25061;51.954;6.996;2023-05-24T11:28:02;13.10;99.90
39345;DHT22;25061;51.954;6.996;2023-05-24T11:30:29;13.30;99.90
39345;DHT22;25061;51.954;6.996;2023-05-24T11:32:57;13.50;99.90
39345;DHT22;25061;51.954;6.996;2023-05-24T11:35:24;13.60;99.90
39345;DHT22;25061;51.954;6.996;2023-05-24T11:37:52;13.70;99.90
39345;DHT22;25061;51.954;6.996;2023-05-24T11:40:18;13.80;99.90
39345;DHT22;25061;51.954;6.996;2023-05-24T11:42:45;14.00;99.90
39345;DHT22;25061;51.954;6.996;2023-05-24T11:45:11;14.00;99.90
39345;DHT22;25061;51.954;6.996;2023-05-24T11:47:38;14.30;99.90
39345;DHT22;25061;51.954;6.996;2023-05-24T11:50:05;14.60;99.90
39345;DHT22;25061;51.954;6.996;2023-05-24T11:52:31;14.90;99.90
39345;DHT22;25061;51.954;6.996;2023-05-24T11:54:57;14.90;99.90
39345;DHT22;25061;51.954;6.996;2023-05-24T11:57:38;14.60;99.90
39345;DHT22;25061;51.954;6.996;2023-05-24T12:00:06;14.60;99.90
39345;DHT22;25061;51.954;6.996;2023-05-24T12:02:35;14.40;99.90
39345;DHT22;25061;51.954;6.996;2023-05-24T12:05:08;14.10;99.90
39345;DHT22;25061;51.954;6.996;2023-05-24T12:07:36;14.10;99.90
39345;DHT22;25061;51.954;6.996;2023-05-24T12:10:04;14.10;99.90
39345;DHT22;25061;51.954;6.996;2023-05-24T12:12:30;14.20;99.90
39345;DHT22;25061;51.954;6.996;2023-05-24T12:14:56;14.20;99.90
39345;DHT22;25061;51.954;6.996;2023-05-24T12:17:22;14.10;99.90
39345;DHT22;25061;51.954;6.996;2023-05-24T12:19:49;14.20;99.90
39345;DHT22;25061;51.954;6.996;2023-05-24T12:22:15;14.20;99.90
39345;DHT22;25061;51.954;6.996;2023-05-24T12:24:41;14.20;99.90
39345;DHT22;25061;51.954;6.996;2023-05-24T12:27:07;14.20;99.90
39345;DHT22;25061;51.954;6.996;2023-05-24T12:29:38;14.20;99.90
39345;DHT22;25061;51.954;6.996;2023-05-24T12:32:04;14.30;99.90
39345;DHT22;25061;51.954;6.996;2023-05-24T12:34:31;14.30;99.90
39345;DHT22;25061;51.954;6.996;2023-05-24T12:36:58;14.30;99.90
39345;DHT22;25061;51.954;6.996;2023-05-24T12:39:25;14.50;99.90
39345;DHT22;25061;51.954;6.996;2023-05-24T12:42:01;14.80;99.90
39345;DHT22;25061;51.954;6.996;2023-05-24T12:44:32;14.90;99.90
39345;DHT22;25061;51.954;6.996;2023-05-24T12:47:19;15.20;99.90
39345;DHT22;25061;51.954;6.996;2023-05-24T12:49:44;15.20;99.90
39345;DHT22;25061;51.954;6.996;2023-05-24T12:52:09;15.10;99.90
39345;DHT22;25061;51.954;6.996;2023-05-24T12:54:36;15.00;99.90
39345;DHT22;25061;51.954;6.996;2023-05-24T12:57:02;14.90;99.90
39345;DHT22;25061;51.954;6.996;2023-05-24T12:59:28;15.00;99.90
39345;DHT22;25061;51.954;6.996;2023-05-24T13:01:54;14.80;99.90
39345;DHT22;25061;51.954;6.996;2023-05-24T13:04:21;14.80;99.90
39345;DHT22;25061;51.954;6.996;2023-05-24T13:06:47;14.80;99.90
39345;DHT22;25061;51.954;6.996;2023-05-24T13:09:13;14.90;99.90
39345;DHT22;25061;51.954;6.996;2023-05-24T13:11:40;14.90;99.90
39345;DHT22;25061;51.954;6.996;2023-05-24T13:14:06;14.90;99.90
39345;DHT22;25061;51.954;6.996;2023-05-24T13:16:37;15.00;99.90
39345;DHT22;25061;51.954;6.996;2023-05-24T13:19:03;15.00;99.90
39345;DHT22;25061;51.954;6.996;2023-05-24T13:21:28;15.10;99.90
39345;DHT22;25061;51.954;6.996;2023-05-24T13:23:54;15.00;99.90
39345;DHT22;25061;51.954;6.996;2023-05-24T13:26:20;15.00;99.90
39345;DHT22;25061;51.954;6.996;2023-05-24T13:28:46;15.10;99.90
39345;DHT22;25061;51.954;6.996;2023-05-24T13:31:11;15.00;99.90
39345;DHT22;25061;51.954;6.996;2023-05-24T13:33:38;15.00;99.90
39345;DHT22;25061;51.954;6.996;2023-05-24T13:36:04;15.10;99.90
39345;DHT22;25061;51.954;6.996;2023-05-24T13:38:30;15.10;99.90
39345;DHT22;25061;51.954;6.996;2023-05-24T13:40:56;15.20;99.90
39345;DHT22;25061;51.954;6.996;2023-05-24T13:43:21;15.20;99.90
39345;DHT22;25061;51.954;6.996;2023-05-24T13:45:47;15.20;99.90
39345;DHT22;25061;51.954;6.996;2023-05-24T13:48:13;15.20;99.90
39345;DHT22;25061;51.954;6.996;2023-05-24T13:50:38;15.20;99.90
39345;DHT22;25061;51.954;6.996;2023-05-24T13:53:05;15.20;99.90
39345;DHT22;25061;51.954;6.996;2023-05-24T13:55:34;15.00;99.90
39345;DHT22;25061;51.954;6.996;2023-05-24T13:58:04;14.90;99.90
39345;DHT22;25061;51.954;6.996;2023-05-24T14:00:33;14.90;99.90
39345;DHT22;25061;51.954;6.996;2023-05-24T14:03:00;14.90;99.90
39345;DHT22;25061;51.954;6.996;2023-05-24T14:05:26;14.90;99.90
39345;DHT22;25061;51.954;6.996;2023-05-24T14:07:55;14.90;99.90
39345;DHT22;25061;51.954;6.996;2023-05-24T14:10:21;14.80;99.90
39345;DHT22;25061;51.954;6.996;2023-05-24T14:12:48;14.80;99.90
39345;DHT22;25061;51.954;6.996;2023-05-24T14:15:13;14.90;99.90
39345;DHT22;25061;51.954;6.996;2023-05-24T14:17:39;15.00;99.90
39345;DHT22;25061;51.954;6.996;2023-05-24T14:20:05;14.90;99.90
39345;DHT22;25061;51.954;6.996;2023-05-24T14:22:31;15.30;99.90
39345;DHT22;25061;51.954;6.996;2023-05-24T14:24:57;15.40;99.90
39345;DHT22;25061;51.954;6.996;2023-05-24T14:27:23;15.60;99.90
39345;DHT22;25061;51.954;6.996;2023-05-24T14:29:49;15.40;99.90
39345;DHT22;25061;51.954;6.996;2023-05-24T14:32:15;15.50;99.90
39345;DHT22;25061;51.954;6.996;2023-05-24T14:34:42;15.70;99.90
39345;DHT22;25061;51.954;6.996;2023-05-24T14:37:08;15.90;99.90
39345;DHT22;25061;51.954;6.996;2023-05-24T14:39:34;16.00;99.90
39345;DHT22;25061;51.954;6.996;2023-05-24T14:42:00;16.10;99.90
39345;DHT22;25061;51.954;6.996;2023-05-24T14:44:25;16.00;99.90
39345;DHT22;25061;51.954;6.996;2023-05-24T14:46:53;16.00;99.90
39345;DHT22;25061;51.954;6.996;2023-05-24T14:49:18;16.20;99.90
39345;DHT22;25061;51.954;6.996;2023-05-24T14:51:46;16.40;99.90
39345;DHT22;25061;51.954;6.996;2023-05-24T14:54:13;16.40;99.90
39345;DHT22;25061;51.954;6.996;2023-05-24T14:56:40;16.70;99.90
39345;DHT22;25061;51.954;6.996;2023-05-24T14:59:06;16.50;99.90
39345;DHT22;25061;51.954;6.996;2023-05-24T15:01:31;16.50;99.90
39345;DHT22;25061;51.954;6.996;2023-05-24T15:03:58;16.30;99.90
39345;DHT22;25061;51.954;6.996;2023-05-24T15:06:24;16.00;99.90
39345;DHT22;25061;51.954;6.996;2023-05-24T15:08:54;15.80;99.90
39345;DHT22;25061;51.954;6.996;2023-05-24T15:11:20;15.60;99.90
39345;DHT22;25061;51.954;6.996;2023-05-24T15:13:47;15.30;99.90
39345;DHT22;25061;51.954;6.996;2023-05-24T15:16:12;15.20;99.90
39345;DHT22;25061;51.954;6.996;2023-05-24T15:18:38;15.20;99.90
39345;DHT22;25061;51.954;6.996;2023-05-24T15:21:04;15.30;99.90
39345;DHT22;25061;51.954;6.996;2023-05-24T15:23:29;15.10;99.90
39345;DHT22;25061;51.954;6.996;2023-05-24T15:25:55;15.10;99.90
39345;DHT22;25061;51.954;6.996;2023-05-24T15:28:21;15.10;99.90
39345;DHT22;25061;51.954;6.996;2023-05-24T15:30:47;15.00;99.90
39345;DHT22;25061;51.954;6.996;2023-05-24T15:33:13;15.10;99.90
39345;DHT22;25061;51.954;6.996;2023-05-24T15:35:41;15.10;99.90
39345;DHT22;25061;51.954;6.996;2023-05-24T15:38:06;15.20;99.90
39345;DHT22;25061;51.954;6.996;2023-05-24T15:40:32;15.10;99.90
39345;DHT22;25061;51.954;6.996;2023-05-24T15:42:58;15.40;99.90
39345;DHT22;25061;51.954;6.996;2023-05-24T15:45:23;15.70;99.90
39345;DHT22;25061;51.954;6.996;2023-05-24T15:47:49;16.00;99.90
39345;DHT22;25061;51.954;6.996;2023-05-24T15:50:15;16.00;99.90
39345;DHT22;25061;51.954;6.996;2023-05-24T15:52:41;16.10;99.90
39345;DHT22;25061;51.954;6.996;2023-05-24T15:55:07;16.30;99.90
39345;DHT22;25061;51.954;6.996;2023-05-24T15:57:33;16.50;99.90
39345;DHT22;25061;51.954;6.996;2023-05-24T15:59:59;16.60;99.90
39345;DHT22;25061;51.954;6.996;2023-05-24T16:02:25;16.60;99.90
39345;DHT22;25061;51.954;6.996;2023-05-24T16:04:51;16.50;99.90
39345;DHT22;25061;51.954;6.996;2023-05-24T16:07:16;16.60;99.90
39345;DHT22;25061;51.954;6.996;2023-05-24T16:09:43;16.70;99.90
39345;DHT22;25061;51.954;6.996;2023-05-24T16:12:11;16.70;99.90
39345;DHT22;25061;51.954;6.996;2023-05-24T16:14:38;16.70;99.90
39345;DHT22;25061;51.954;6.996;2023-05-24T16:17:05;16.80;99.90
39345;DHT22;25061;51.954;6.996;2023-05-24T16:19:30;16.70;99.90
39345;DHT22;25061;51.954;6.996;2023-05-24T16:21:56;16.70;99.90
39345;DHT22;25061;51.954;6.996;2023-05-24T16:24:21;16.70;99.90
39345;DHT22;25061;51.954;6.996;2023-05-24T16:26:49;16.60;99.90
39345;DHT22;25061;51.954;6.996;2023-05-24T16:29:14;16.50;99.90
39345;DHT22;25061;51.954;6.996;2023-05-24T16:31:42;16.50;99.90
39345;DHT22;25061;51.954;6.996;2023-05-24T16:34:08;16.60;99.90
39345;DHT22;25061;51.954;6.996;2023-05-24T16:36:34;16.50;99.90
39345;DHT22;25061;51.954;6.996;2023-05-24T16:38:59;16.60;99.90
39345;DHT22;25061;51.954;6.996;2023-05-24T16:41:25;16.70;99.90
39345;DHT22;25061;51.954;6.996;2023-05-24T16:43:53;16.80;99.90
39345;DHT22;25061;51.954;6.996;2023-05-24T16:46:19;16.70;99.90
39345;DHT22;25061;51.954;6.996;2023-05-24T16:48:44;16.70;99.90
39345;DHT22;25061;51.954;6.996;2023-05-24T16:51:10;16.40;99.90
39345;DHT22;25061;51.954;6.996;2023-05-24T16:53:36;16.30;99.90
39345;DHT22;25061;51.954;6.996;2023-05-24T16:56:02;16.40;99.90
39345;DHT22;25061;51.954;6.996;2023-05-24T16:58:29;16.30;99.90
39345;DHT22;25061;51.954;6.996;2023-05-24T17:00:55;16.40;99.90
39345;DHT22;25061;51.954;6.996;2023-05-24T17:03:22;16.40;99.90
39345;DHT22;25061;51.954;6.996;2023-05-24T17:05:54;16.50;99.90
39345;DHT22;25061;51.954;6.996;2023-05-24T17:08:21;16.60;99.90
39345;DHT22;25061;51.954;6.996;2023-05-24T17:10:49;16.50;99.90
39345;DHT22;25061;51.954;6.996;2023-05-24T17:13:20;16.30;99.90
39345;DHT22;25061;51.954;6.996;2023-05-24T17:15:47;16.20;99.90
39345;DHT22;25061;51.954;6.996;2023-05-24T17:18:16;16.00;99.90
39345;DHT22;25061;51.954;6.996;2023-05-24T17:20:42;15.90;99.90
39345;DHT22;25061;51.954;6.996;2023-05-24T17:23:07;15.80;99.90
39345;DHT22;25061;51.954;6.996;2023-05-24T17:25:33;15.80;99.90
39345;DHT22;25061;51.954;6.996;2023-05-24T17:27:58;15.70;99.90
39345;DHT22;25061;51.954;6.996;2023-05-24T17:30:24;15.70;99.90
39345;DHT22;25061;51.954;6.996;2023-05-24T17:32:52;15.60;99.90
39345;DHT22;25061;51.954;6.996;2023-05-24T17:35:17;15.50;99.90
39345;DHT22;25061;51.954;6.996;2023-05-24T17:37:43;15.30;99.90
39345;DHT22;25061;51.954;6.996;2023-05-24T17:40:09;15.30;99.90
39345;DHT22;25061;51.954;6.996;2023-05-24T17:42:34;15.30;99.90
39345;DHT22;25061;51.954;6.996;2023-05-24T17:45:00;15.30;99.90
39345;DHT22;25061;51.954;6.996;2023-05-24T17:47:26;15.30;99.90
39345;DHT22;25061;51.954;6.996;2023-05-24T17:49:51;15.20;99.90
39345;DHT22;25061;51.954;6.996;2023-05-24T17:52:17;15.20;99.90
39345;DHT22;25061;51.954;6.996;2023-05-24T17:54:44;15.20;99.90
39345;DHT22;25061;51.954;6.996;2023-05-24T17:57:09;15.30;99.90
39345;DHT22;25061;51.954;6.996;2023-05-24T17:59:35;15.30;99.90
39345;DHT22;25061;51.954;6.996;2023-05-24T18:02:01;15.30;99.90
39345;DHT22;25061;51.954;6.996;2023-05-24T18:04:26;15.20;99.90
39345;DHT22;25061;51.954;6.996;2023-05-24T18:06:52;15.10;99.90
39345;DHT22;25061;51.954;6.996;2023-05-24T18:09:19;15.10;99.90
39345;DHT22;25061;51.954;6.996;2023-05-24T18:11:46;15.00;99.90
39345;DHT22;25061;51.954;6.996;2023-05-24T18:14:12;15.10;99.90
39345;DHT22;25061;51.954;6.996;2023-05-24T18:16:38;15.00;99.90
39345;DHT22;25061;51.954;6.996;2023-05-24T18:19:03;15.00;99.90
39345;DHT22;25061;51.954;6.996;2023-05-24T18:21:29;15.00;99.90
39345;DHT22;25061;51.954;6.996;2023-05-24T18:23:56;14.90;99.90
39345;DHT22;25061;51.954;6.996;2023-05-24T18:26:22;14.90;99.90
39345;DHT22;25061;51.954;6.996;2023-05-24T18:28:48;14.80;99.90
39345;DHT22;25061;51.954;6.996;2023-05-24T18:31:13;14.90;99.90
39345;DHT22;25061;51.954;6.996;2023-05-24T18:33:39;14.90;99.90
39345;DHT22;25061;51.954;6.996;2023-05-24T18:36:05;14.90;99.90
39345;DHT22;25061;51.954;6.996;2023-05-24T18:38:34;14.90;99.90
39345;DHT22;25061;51.954;6.996;2023-05-24T18:41:01;14.90;99.90
39345;DHT22;25061;51.954;6.996;2023-05-24T18:43:27;15.00;99.90
39345;DHT22;25061;51.954;6.996;2023-05-24T18:45:53;15.00;99.90
39345;DHT22;25061;51.954;6.996;2023-05-24T18:48:18;14.90;99.90
39345;DHT22;25061;51.954;6.996;2023-05-24T18:50:45;14.90;99.90
39345;DHT22;25061;51.954;6.996;2023-05-24T18:53:11;14.80;99.90
39345;DHT22;25061;51.954;6.996;2023-05-24T18:55:37;14.70;99.90
39345;DHT22;25061;51.954;6.996;2023-05-24T18:58:02;14.60;99.90
39345;DHT22;25061;51.954;6.996;2023-05-24T19:00:28;14.60;99.90
39345;DHT22;25061;51.954;6.996;2023-05-24T19:02:53;14.50;99.90
39345;DHT22;25061;51.954;6.996;2023-05-24T19:05:19;14.50;99.90
39345;DHT22;25061;51.954;6.996;2023-05-24T19:07:45;14.40;99.90
39345;DHT22;25061;51.954;6.996;2023-05-24T19:10:11;14.40;99.90
39345;DHT22;25061;51.954;6.996;2023-05-24T19:12:38;14.30;99.90
39345;DHT22;25061;51.954;6.996;2023-05-24T19:15:04;14.20;99.90
39345;DHT22;25061;51.954;6.996;2023-05-24T19:17:30;14.20;99.90
39345;DHT22;25061;51.954;6.996;2023-05-24T19:19:55;14.10;99.90
39345;DHT22;25061;51.954;6.996;2023-05-24T19:22:21;14.10;99.90
39345;DHT22;25061;51.954;6.996;2023-05-24T19:24:46;14.00;99.90
39345;DHT22;25061;51.954;6.996;2023-05-24T19:27:14;14.00;99.90
39345;DHT22;25061;51.954;6.996;2023-05-24T19:29:40;13.90;99.90
39345;DHT22;25061;51.954;6.996;2023-05-24T19:32:05;13.80;99.90
39345;DHT22;25061;51.954;6.996;2023-05-24T19:34:31;13.70;99.90
39345;DHT22;25061;51.954;6.996;2023-05-24T19:37:00;13.50;99.90
39345;DHT22;25061;51.954;6.996;2023-05-24T19:39:25;13.50;99.90
39345;DHT22;25061;51.954;6.996;2023-05-24T19:41:51;13.50;99.90
39345;DHT22;25061;51.954;6.996;2023-05-24T19:44:17;13.40;99.90
39345;DHT22;25061;51.954;6.996;2023-05-24T19:46:43;13.30;99.90
39345;DHT22;25061;51.954;6.996;2023-05-24T19:49:10;13.20;99.90
39345;DHT22;25061;51.954;6.996;2023-05-24T19:51:36;13.10;99.90
39345;DHT22;25061;51.954;6.996;2023-05-24T19:54:02;13.20;99.90
39345;DHT22;25061;51.954;6.996;2023-05-24T19:56:28;13.10;99.90
39345;DHT22;25061;51.954;6.996;2023-05-24T19:58:54;13.10;99.90
39345;DHT22;25061;51.954;6.996;2023-05-24T20:01:19;13.10;99.90
39345;DHT22;25061;51.954;6.996;2023-05-24T20:03:45;13.00;99.90
39345;DHT22;25061;51.954;6.996;2023-05-24T20:06:15;12.90;99.90
39345;DHT22;25061;51.954;6.996;2023-05-24T20:08:41;12.70;99.90
39345;DHT22;25061;51.954;6.996;2023-05-24T20:11:07;12.60;99.90